Time;durP1;ratioP1;P1;durP2;ratioP2;P2;SDS_P1;SDS_P2;PMS_P1;PMS_P2;Temp;Humidity;BMP_temperature;BMP_pressure;BME280_temperature;BME280_humidity;BME280_pressure;Samples;Min_cycle;Max_cycle;Signal;HPM_P1;HPM_P2
2023/07/18 00:02:50;;;;;;;6.50;3.33;;;26.30;74.60;;;;;;6172662;27;88139;-57
2023/07/18 00:05:51;;;;;;;7.00;3.25;;;26.20;74.20;;;;;;6171577;27;80563;-73
2023/07/18 00:08:51;;;;;;;4.68;3.95;;;26.30;74.80;;;;;;6172842;27;80235;-73
2023/07/18 00:11:52;;;;;;;5.28;3.85;;;26.30;74.40;;;;;;6154079;27;82711;-72
2023/07/18 00:14:52;;;;;;;8.20;3.40;;;26.40;74.50;;;;;;6148993;27;80552;-72
2023/07/18 00:17:53;;;;;;;10.27;3.75;;;26.40;74.20;;;;;;6160848;27;83134;-72
2023/07/18 00:20:53;;;;;;;6.50;3.95;;;26.40;74.10;;;;;;6158926;27;81566;-72
2023/07/18 00:23:54;;;;;;;5.07;3.65;;;26.40;74.40;;;;;;6161073;27;80566;-73
2023/07/18 00:26:55;;;;;;;5.38;3.65;;;26.40;74.30;;;;;;6173352;27;81692;-73
2023/07/18 00:29:55;;;;;;;7.45;3.63;;;26.40;74.10;;;;;;6186444;27;80702;-72
2023/07/18 00:32:59;;;;;;;6.10;3.80;;;26.40;74.00;;;;;;6172377;27;80896;-72
2023/07/18 00:35:59;;;;;;;9.52;3.75;;;26.40;74.10;;;;;;6173376;27;80486;-71
2023/07/18 00:39:00;;;;;;;7.68;3.40;;;26.50;73.90;;;;;;6172627;27;80362;-71
2023/07/18 00:42:00;;;;;;;4.13;3.42;;;26.50;73.90;;;;;;6172706;27;80358;-57
2023/07/18 00:45:01;;;;;;;5.75;3.65;;;26.50;73.70;;;;;;6172740;27;80353;-57
2023/07/18 00:48:02;;;;;;;5.85;3.63;;;26.50;73.60;;;;;;6171566;27;82297;-58
2023/07/18 00:51:07;;;;;;;4.88;3.20;;;26.50;74.10;;;;;;6166374;27;80386;-58
2023/07/18 00:54:07;;;;;;;5.20;3.97;;;26.40;73.50;;;;;;6172967;27;80296;-59
2023/07/18 00:57:08;;;;;;;4.82;3.80;;;26.40;73.70;;;;;;6149301;27;80344;-59
2023/07/18 01:00:09;;;;;;;5.68;3.55;;;26.40;73.40;;;;;;6160302;27;80869;-57
2023/07/18 01:03:09;;;;;;;6.78;3.65;;;26.40;73.40;;;;;;6144160;27;83437;-58
2023/07/18 01:06:11;;;;;;;6.35;2.95;;;26.40;73.60;;;;;;6165881;27;83128;-59
2023/07/18 01:09:12;;;;;;;5.68;3.22;;;26.40;73.30;;;;;;6159573;27;82516;-59
2023/07/18 01:12:12;;;;;;;4.13;3.38;;;26.40;73.60;;;;;;6144723;27;80716;-58
2023/07/18 01:15:13;;;;;;;4.70;3.65;;;26.40;73.10;;;;;;6153193;27;80562;-59
2023/07/18 01:18:13;;;;;;;7.05;3.47;;;26.40;73.00;;;;;;6158661;27;80340;-57
2023/07/18 01:21:14;;;;;;;4.65;3.90;;;26.40;72.80;;;;;;6161112;27;80488;-58
2023/07/18 01:24:14;;;;;;;3.67;3.10;;;26.30;72.30;;;;;;6147287;27;81299;-58
2023/07/18 01:27:17;;;;;;;3.60;3.05;;;26.40;72.50;;;;;;6145677;27;80427;-58
2023/07/18 01:30:17;;;;;;;4.85;3.60;;;26.30;72.20;;;;;;6148144;27;81308;-58
2023/07/18 01:33:18;;;;;;;4.15;3.28;;;26.30;71.90;;;;;;6153748;27;80832;-58
2023/07/18 01:36:18;;;;;;;5.07;3.28;;;26.20;71.60;;;;;;6165208;27;82523;-72
2023/07/18 01:39:19;;;;;;;6.90;3.63;;;26.20;71.70;;;;;;6168717;27;80978;-73
2023/07/18 01:42:20;;;;;;;8.68;4.15;;;26.20;72.00;;;;;;6153782;27;81885;-73
2023/07/18 01:45:21;;;;;;;4.88;3.30;;;26.20;71.90;;;;;;6174383;27;82276;-72
2023/07/18 01:48:22;;;;;;;5.13;3.33;;;26.20;72.10;;;;;;6166346;27;82130;-73
2023/07/18 01:51:24;;;;;;;4.53;3.25;;;26.20;72.00;;;;;;6161781;27;80277;-72
2023/07/18 01:54:27;;;;;;;5.20;3.50;;;26.30;71.90;;;;;;6151260;27;80273;-72
2023/07/18 01:57:27;;;;;;;7.88;3.53;;;26.30;71.60;;;;;;6150745;27;82082;-71
2023/07/18 02:00:28;;;;;;;7.35;3.92;;;26.30;71.70;;;;;;6161027;27;80507;-74
2023/07/18 02:03:28;;;;;;;4.82;3.70;;;26.40;71.40;;;;;;6162125;27;80859;-73
2023/07/18 02:06:29;;;;;;;6.03;3.65;;;26.30;71.30;;;;;;6154161;27;81143;-74
2023/07/18 02:09:29;;;;;;;6.03;3.67;;;26.30;71.00;;;;;;6156267;27;80913;-71
2023/07/18 02:12:31;;;;;;;9.45;4.03;;;26.20;71.30;;;;;;6164431;27;82144;-57
2023/07/18 02:15:32;;;;;;;6.28;3.63;;;26.10;71.30;;;;;;6160724;27;83565;-57
2023/07/18 02:18:33;;;;;;;4.68;3.47;;;26.00;71.60;;;;;;6161510;27;80402;-57
2023/07/18 02:21:33;;;;;;;6.60;4.25;;;26.00;71.50;;;;;;6155598;27;80662;-58
2023/07/18 02:24:34;;;;;;;4.55;3.60;;;26.00;71.40;;;;;;6162235;27;80715;-57
2023/07/18 02:27:37;;;;;;;4.60;3.92;;;25.90;71.50;;;;;;6173396;27;81468;-58
2023/07/18 02:30:38;;;;;;;6.30;3.97;;;26.00;71.40;;;;;;6160008;27;81670;-71
2023/07/18 02:33:38;;;;;;;6.22;3.80;;;26.00;71.40;;;;;;6153463;27;82146;-74
2023/07/18 02:36:39;;;;;;;7.28;3.85;;;26.00;71.40;;;;;;6174417;27;80228;-74
2023/07/18 02:39:42;;;;;;;6.80;3.67;;;26.00;71.50;;;;;;6176339;27;81566;-72
2023/07/18 02:42:43;;;;;;;6.85;3.67;;;26.00;71.60;;;;;;6166464;27;81586;-71
2023/07/18 02:45:43;;;;;;;5.15;3.28;;;26.00;71.60;;;;;;6150547;27;85813;-72
2023/07/18 02:48:44;;;;;;;10.32;4.60;;;26.10;71.70;;;;;;6159087;27;81155;-57
2023/07/18 02:51:44;;;;;;;5.15;4.13;;;26.10;71.60;;;;;;6150612;27;80617;-58
2023/07/18 02:54:45;;;;;;;6.65;4.00;;;26.00;70.70;;;;;;6157091;27;83305;-59
2023/07/18 02:57:46;;;;;;;6.57;3.92;;;26.00;71.10;;;;;;6148748;27;82667;-57
2023/07/18 03:00:46;;;;;;;6.90;4.45;;;26.10;71.10;;;;;;6163007;27;80728;-56
2023/07/18 03:03:47;;;;;;;7.57;4.28;;;26.10;71.10;;;;;;6159382;27;80543;-60
2023/07/18 03:06:47;;;;;;;7.57;4.53;;;26.00;71.10;;;;;;6165545;27;83272;-73
2023/07/18 03:09:48;;;;;;;8.85;4.57;;;26.00;71.50;;;;;;6167037;27;80586;-71
2023/07/18 03:12:49;;;;;;;6.63;4.00;;;26.00;71.50;;;;;;6164883;27;81078;-73
2023/07/18 03:15:49;;;;;;;8.55;4.50;;;26.00;71.50;;;;;;6171039;27;80140;-73
2023/07/18 03:18:50;;;;;;;8.55;4.68;;;26.00;71.70;;;;;;6165340;27;82401;-74
2023/07/18 03:21:50;;;;;;;9.25;5.03;;;26.00;71.90;;;;;;6155430;27;80667;-70
2023/07/18 03:24:51;;;;;;;11.45;4.82;;;26.10;72.00;;;;;;6162963;27;83931;-71
2023/07/18 03:27:52;;;;;;;7.40;4.78;;;26.10;71.90;;;;;;6158119;27;80761;-66
2023/07/18 03:30:52;;;;;;;9.70;4.93;;;26.10;71.90;;;;;;6161976;27;80868;-71
2023/07/18 03:33:53;;;;;;;10.07;5.32;;;26.10;71.90;;;;;;6164364;27;80161;-69
2023/07/18 03:36:53;;;;;;;10.52;5.22;;;26.10;71.90;;;;;;6158412;27;80605;-68
2023/07/18 03:39:54;;;;;;;9.15;5.60;;;26.10;72.20;;;;;;6171997;27;80335;-69
2023/07/18 03:42:54;;;;;;;11.32;6.28;;;26.10;72.10;;;;;;6171490;27;83076;-69
2023/07/18 03:45:55;;;;;;;14.27;7.13;;;26.10;72.70;;;;;;6174497;27;80089;-58
2023/07/18 03:48:55;;;;;;;10.57;7.00;;;26.00;72.10;;;;;;6155832;27;80974;-59
2023/07/18 03:51:56;;;;;;;15.85;7.03;;;26.00;71.90;;;;;;6171519;27;80453;-59
2023/07/18 03:54:56;;;;;;;12.38;6.80;;;26.00;71.60;;;;;;6158659;27;82315;-60
2023/07/18 03:57:57;;;;;;;16.20;7.43;;;26.20;71.40;;;;;;6168080;27;81737;-59
2023/07/18 04:00:57;;;;;;;13.88;7.78;;;26.20;71.50;;;;;;6167277;27;80349;-56
2023/07/18 04:04:04;;;;;;;19.48;8.38;;;26.20;71.80;;;;;;6166356;27;80136;-70
2023/07/18 04:07:04;;;;;;;18.10;7.95;;;26.30;72.80;;;;;;6179253;27;81254;-66
2023/07/18 04:10:05;;;;;;;20.92;8.55;;;26.30;71.80;;;;;;6168082;27;80610;-61
2023/07/18 04:13:05;;;;;;;22.25;9.82;;;26.40;72.80;;;;;;6162798;27;83477;-72
2023/07/18 04:16:07;;;;;;;19.65;7.22;;;26.40;72.60;;;;;;6175316;27;80727;-74
2023/07/18 04:19:08;;;;;;;13.98;6.53;;;26.40;72.90;;;;;;6162809;27;83689;-67
2023/07/18 04:22:08;;;;;;;13.60;7.30;;;26.50;72.30;;;;;;6170843;27;80484;-68
2023/07/18 04:25:09;;;;;;;15.65;6.97;;;26.50;72.00;;;;;;6161765;27;80210;-67
2023/07/18 04:28:09;;;;;;;11.10;5.40;;;26.50;69.20;;;;;;6169329;27;80532;-68
2023/07/18 04:31:10;;;;;;;17.45;6.47;;;26.50;68.80;;;;;;6165239;27;81965;-65
2023/07/18 04:34:11;;;;;;;14.32;6.63;;;26.50;69.00;;;;;;6174766;27;80446;-66
2023/07/18 04:37:12;;;;;;;10.93;5.57;;;26.50;67.60;;;;;;6172043;27;81247;-72
2023/07/18 04:40:12;;;;;;;8.52;4.82;;;26.50;68.20;;;;;;6169206;27;80477;-70
2023/07/18 04:43:13;;;;;;;13.25;4.93;;;26.50;66.20;;;;;;6150019;27;82651;-69
2023/07/18 04:46:13;;;;;;;7.95;5.10;;;26.50;66.30;;;;;;6136575;27;81225;-64
2023/07/18 04:49:14;;;;;;;7.95;4.35;;;26.50;66.80;;;;;;6155459;27;85106;-68
2023/07/18 04:52:15;;;;;;;9.95;4.85;;;26.50;65.40;;;;;;6156064;27;88784;-69
2023/07/18 04:55:16;;;;;;;9.75;4.97;;;26.50;66.70;;;;;;6150821;27;81384;-69
2023/07/18 04:58:17;;;;;;;12.18;4.82;;;26.50;66.40;;;;;;6160904;27;82261;-64
2023/07/18 05:01:17;;;;;;;7.18;4.30;;;26.50;65.30;;;;;;6152777;27;81701;-63
2023/07/18 05:04:18;;;;;;;8.65;4.65;;;26.50;64.80;;;;;;6148325;27;83424;-63
2023/07/18 05:07:18;;;;;;;11.48;5.07;;;26.50;64.70;;;;;;6165480;27;81253;-60
2023/07/18 05:10:19;;;;;;;9.35;4.35;;;26.60;64.20;;;;;;6167947;27;80628;-60
2023/07/18 05:13:20;;;;;;;11.07;5.22;;;26.60;64.40;;;;;;6174958;27;80319;-61
2023/07/18 05:16:20;;;;;;;7.40;4.40;;;26.60;64.20;;;;;;6180696;27;80780;-56
2023/07/18 05:19:21;;;;;;;6.78;4.70;;;26.70;63.90;;;;;;6168748;27;80297;-51
2023/07/18 05:22:21;;;;;;;10.23;5.00;;;26.70;63.60;;;;;;6169612;27;80990;-51
2023/07/18 05:25:22;;;;;;;7.07;4.53;;;26.60;63.50;;;;;;6168409;27;81265;-56
2023/07/18 05:28:22;;;;;;;10.90;5.05;;;26.60;63.40;;;;;;6172037;27;81185;-54
2023/07/18 05:31:23;;;;;;;9.15;5.05;;;26.70;63.40;;;;;;6168895;27;80407;-54
2023/07/18 05:34:23;;;;;;;7.93;4.55;;;26.60;63.10;;;;;;6165866;27;80704;-57
2023/07/18 05:37:25;;;;;;;6.90;4.45;;;26.70;63.30;;;;;;6170126;27;81445;-57
2023/07/18 05:40:26;;;;;;;11.45;4.70;;;26.70;63.10;;;;;;6177372;27;80477;-55
2023/07/18 05:43:26;;;;;;;8.60;4.32;;;26.70;63.80;;;;;;6173535;27;80474;-58
2023/07/18 05:46:27;;;;;;;8.18;4.50;;;26.70;62.90;;;;;;6162892;27;81512;-54
2023/07/18 05:49:27;;;;;;;7.97;4.75;;;26.60;62.60;;;;;;6167589;27;80506;-57
2023/07/18 05:52:28;;;;;;;12.00;4.57;;;26.70;62.10;;;;;;6153306;27;81331;-65
2023/07/18 05:55:28;;;;;;;16.08;4.22;;;26.70;62.00;;;;;;6158508;27;80741;-65
2023/07/18 05:58:29;;;;;;;7.22;4.32;;;26.70;62.30;;;;;;6155552;27;81715;-62
2023/07/18 06:01:29;;;;;;;11.90;4.82;;;26.70;62.50;;;;;;6156343;27;80831;-62
2023/07/18 06:04:30;;;;;;;10.70;4.45;;;26.70;62.00;;;;;;6155514;27;81955;-64
2023/07/18 06:07:31;;;;;;;11.20;4.65;;;26.70;61.90;;;;;;6168947;27;81345;-61
2023/07/18 06:10:31;;;;;;;8.98;5.05;;;26.80;61.60;;;;;;6163907;27;80306;-63
2023/07/18 06:13:32;;;;;;;10.40;4.45;;;26.70;61.50;;;;;;6162617;27;81518;-58
2023/07/18 06:16:32;;;;;;;8.35;4.32;;;26.70;61.70;;;;;;6163925;27;80540;-56
2023/07/18 06:19:33;;;;;;;9.63;3.95;;;26.70;61.30;;;;;;6169464;27;80873;-56
2023/07/18 06:22:33;;;;;;;9.00;4.85;;;26.80;61.50;;;;;;6164605;27;80446;-54
2023/07/18 06:25:35;;;;;;;8.38;4.60;;;26.80;61.20;;;;;;6161578;27;83751;-55
2023/07/18 06:28:36;;;;;;;7.88;4.25;;;26.80;61.20;;;;;;6164005;27;81814;-54
2023/07/18 06:31:37;;;;;;;7.28;4.20;;;26.80;60.80;;;;;;6162904;27;80533;-61
2023/07/18 06:34:40;;;;;;;11.52;4.60;;;26.80;60.80;;;;;;6167050;27;81435;-61
2023/07/18 06:37:41;;;;;;;9.02;4.40;;;26.80;60.60;;;;;;6174300;27;81173;-61
2023/07/18 06:40:41;;;;;;;15.48;4.78;;;26.80;60.30;;;;;;6165409;27;80982;-61
2023/07/18 06:43:42;;;;;;;8.25;4.07;;;26.70;59.80;;;;;;6163262;27;86185;-64
2023/07/18 06:46:42;;;;;;;10.98;4.80;;;26.70;59.40;;;;;;6152497;27;80928;-66
2023/07/18 06:49:43;;;;;;;8.07;4.85;;;26.70;59.40;;;;;;6163909;27;80613;-56
2023/07/18 06:52:43;;;;;;;10.43;4.60;;;26.60;59.20;;;;;;6171141;27;80448;-58
2023/07/18 06:55:44;;;;;;;9.48;4.78;;;26.60;58.90;;;;;;6161224;27;83970;-55
2023/07/18 06:58:44;;;;;;;12.80;4.75;;;26.60;58.60;;;;;;6159337;27;82522;-58
2023/07/18 07:01:45;;;;;;;11.55;4.65;;;26.60;58.50;;;;;;6161179;27;80729;-58
2023/07/18 07:04:45;;;;;;;7.85;4.65;;;26.60;58.20;;;;;;6168790;27;80723;-56
2023/07/18 07:07:49;;;;;;;8.65;4.63;;;26.60;57.50;;;;;;6171524;27;80865;-55
2023/07/18 07:10:49;;;;;;;13.60;5.38;;;26.50;57.60;;;;;;6183809;27;81200;-53
2023/07/18 07:13:50;;;;;;;11.48;4.03;;;26.60;57.80;;;;;;6166147;27;81472;-54
2023/07/18 07:16:51;;;;;;;8.45;4.75;;;26.60;57.90;;;;;;6171005;27;80444;-56
2023/07/18 07:19:51;;;;;;;11.70;4.47;;;26.60;57.80;;;;;;6174024;27;80712;-56
2023/07/18 07:22:53;;;;;;;6.85;4.13;;;26.50;57.50;;;;;;6174230;27;80778;-57
2023/07/18 07:25:53;;;;;;;12.02;4.90;;;26.50;57.60;;;;;;6179066;27;81811;-55
2023/07/18 07:28:54;;;;;;;15.15;6.15;;;26.60;57.80;;;;;;6172942;27;80930;-57
2023/07/18 07:31:54;;;;;;;16.92;6.43;;;26.60;57.60;;;;;;6171615;27;81311;-57
2023/07/18 07:34:55;;;;;;;13.98;7.10;;;26.60;57.60;;;;;;6174207;27;80755;-57
2023/07/18 07:37:56;;;;;;;13.48;7.47;;;26.60;57.50;;;;;;6174470;27;80680;-57
2023/07/18 07:40:56;;;;;;;18.95;8.38;;;26.70;58.00;;;;;;6170723;27;81130;-53
2023/07/18 07:43:57;;;;;;;16.52;7.25;;;26.70;57.80;;;;;;6176138;27;81292;-55
2023/07/18 07:46:58;;;;;;;12.27;6.32;;;26.70;57.60;;;;;;6175421;27;81035;-50
2023/07/18 07:49:58;;;;;;;11.18;5.85;;;26.70;57.60;;;;;;6171420;27;83897;-52
2023/07/18 07:52:59;;;;;;;9.32;5.40;;;26.80;57.50;;;;;;6170454;27;80181;-57
2023/07/18 07:55:59;;;;;;;11.63;5.10;;;26.80;57.20;;;;;;6163318;27;80588;-58
2023/07/18 07:59:00;;;;;;;8.57;4.78;;;26.80;57.00;;;;;;6173848;27;80559;-57
2023/07/18 08:02:01;;;;;;;9.15;4.43;;;26.80;56.80;;;;;;6176628;27;80122;-55
2023/07/18 08:05:01;;;;;;;16.67;4.95;;;26.80;56.20;;;;;;6170891;27;80752;-51
2023/07/18 08:08:02;;;;;;;7.80;4.25;;;26.80;55.60;;;;;;6168122;27;81709;-53
2023/07/18 08:11:03;;;;;;;8.95;3.72;;;26.80;54.90;;;;;;6159560;27;81725;-55
2023/07/18 08:14:04;;;;;;;11.45;3.67;;;26.80;55.40;;;;;;6154095;27;80708;-55
2023/07/18 08:17:04;;;;;;;11.63;3.90;;;26.80;55.40;;;;;;6153630;27;81247;-53
2023/07/18 08:20:07;;;;;;;9.93;3.72;;;26.80;55.20;;;;;;6156745;27;80697;-65
2023/07/18 08:23:08;;;;;;;9.43;3.90;;;26.80;55.30;;;;;;6163629;27;80570;-73
2023/07/18 08:26:08;;;;;;;10.27;3.17;;;26.80;55.20;;;;;;6161441;27;82755;-68
2023/07/18 08:29:09;;;;;;;6.35;3.50;;;26.80;55.00;;;;;;6163306;27;80624;-67
2023/07/18 08:32:10;;;;;;;7.28;3.55;;;26.80;54.80;;;;;;6169820;27;80887;-68
2023/07/18 08:35:10;;;;;;;14.32;4.03;;;26.70;54.70;;;;;;6159742;27;82383;-63
2023/07/18 08:38:11;;;;;;;9.50;3.90;;;26.80;55.40;;;;;;6162085;27;80557;-65
2023/07/18 08:41:11;;;;;;;5.97;3.40;;;26.80;55.40;;;;;;6163860;27;80776;-69
2023/07/18 08:44:12;;;;;;;6.55;3.83;;;26.80;55.30;;;;;;6156385;27;81103;-69
2023/07/18 08:47:13;;;;;;;9.23;4.13;;;26.80;54.90;;;;;;6162439;27;80412;-67
2023/07/18 08:50:13;;;;;;;6.22;3.33;;;26.80;55.20;;;;;;6169627;27;80529;-70
2023/07/18 08:53:14;;;;;;;15.00;3.88;;;26.80;55.60;;;;;;6169552;27;80408;-69
2023/07/18 08:56:14;;;;;;;7.90;4.43;;;26.90;56.00;;;;;;6169230;27;82940;-69
2023/07/18 08:59:15;;;;;;;6.15;4.30;;;26.90;56.10;;;;;;6160345;27;80777;-67
2023/07/18 09:02:15;;;;;;;5.68;3.88;;;27.00;55.90;;;;;;6165453;27;81221;-68
2023/07/18 09:05:16;;;;;;;7.30;4.10;;;27.00;55.90;;;;;;6165608;27;80342;-73
2023/07/18 09:08:16;;;;;;;8.02;3.53;;;27.00;55.20;;;;;;6173993;27;80762;-64
2023/07/18 09:11:17;;;;;;;7.05;3.95;;;27.00;54.70;;;;;;6175468;27;81746;-64
2023/07/18 09:14:17;;;;;;;16.17;3.83;;;27.00;55.30;;;;;;6162520;27;84447;-63
2023/07/18 09:17:18;;;;;;;10.60;4.10;;;27.10;55.60;;;;;;6170131;27;80677;-63
2023/07/18 09:20:19;;;;;;;8.80;3.70;;;27.10;55.80;;;;;;6170061;27;80564;-65
2023/07/18 09:23:19;;;;;;;8.68;3.92;;;27.00;56.10;;;;;;6167108;27;80786;-65
2023/07/18 09:26:20;;;;;;;7.68;3.65;;;27.10;56.20;;;;;;6172987;27;80380;-62
2023/07/18 09:29:20;;;;;;;8.68;3.80;;;27.10;55.80;;;;;;6177496;27;81741;-65
2023/07/18 09:32:21;;;;;;;7.30;3.63;;;27.10;56.00;;;;;;6169651;27;80643;-66
2023/07/18 09:35:21;;;;;;;12.07;3.78;;;27.10;56.00;;;;;;6172173;27;80604;-56
2023/07/18 09:38:22;;;;;;;5.20;3.33;;;27.10;55.90;;;;;;6170042;27;81187;-59
2023/07/18 09:41:23;;;;;;;8.88;3.50;;;27.20;55.70;;;;;;6167220;27;81017;-58
2023/07/18 09:44:24;;;;;;;7.82;3.78;;;27.20;55.40;;;;;;6159550;27;80651;-58
2023/07/18 09:47:24;;;;;;;10.80;3.20;;;27.20;55.40;;;;;;6168136;27;80162;-57
2023/07/18 09:50:25;;;;;;;7.20;3.45;;;27.20;55.70;;;;;;6173300;27;81906;-57
2023/07/18 09:53:25;;;;;;;10.57;3.33;;;27.20;55.30;;;;;;6166643;27;80538;-55
2023/07/18 09:56:26;;;;;;;8.80;3.90;;;27.20;55.40;;;;;;6172192;27;81018;-55
2023/07/18 09:59:27;;;;;;;8.48;3.20;;;27.20;55.60;;;;;;6166978;27;80589;-53
2023/07/18 10:02:28;;;;;;;6.63;3.22;;;27.20;55.90;;;;;;6166492;27;80024;-55
2023/07/18 10:05:28;;;;;;;9.15;3.40;;;27.30;56.30;;;;;;6164630;27;80468;-54
2023/07/18 10:08:29;;;;;;;8.45;2.97;;;27.30;55.90;;;;;;6165567;27;80508;-58
2023/07/18 10:11:29;;;;;;;10.27;3.40;;;27.20;56.40;;;;;;6178736;27;80652;-57
2023/07/18 10:14:30;;;;;;;8.35;3.55;;;27.30;56.40;;;;;;6166564;27;88139;-57
2023/07/18 10:17:30;;;;;;;6.40;3.58;;;27.30;56.70;;;;;;6164310;27;80508;-56
2023/07/18 10:20:31;;;;;;;5.63;3.47;;;27.30;56.80;;;;;;6165223;27;83075;-53
2023/07/18 10:23:32;;;;;;;6.85;3.70;;;27.30;57.20;;;;;;6165147;27;80630;-57
2023/07/18 10:26:32;;;;;;;8.10;3.55;;;27.40;57.20;;;;;;6165496;27;85721;-54
2023/07/18 10:29:33;;;;;;;7.75;3.53;;;27.40;57.10;;;;;;6174490;27;80722;-55
2023/07/18 10:32:33;;;;;;;6.55;3.20;;;27.40;57.00;;;;;;6172199;27;80924;-56
2023/07/18 10:35:34;;;;;;;8.63;3.85;;;27.40;56.80;;;;;;6171534;27;80435;-57
2023/07/18 10:38:38;;;;;;;8.43;3.50;;;27.40;56.70;;;;;;6162555;27;80831;-55
2023/07/18 10:41:38;;;;;;;10.95;3.53;;;27.40;56.00;;;;;;6167153;27;81015;-57
2023/07/18 10:44:39;;;;;;;7.88;3.33;;;27.50;56.30;;;;;;6163806;27;80823;-58
2023/07/18 10:47:39;;;;;;;5.68;3.70;;;27.50;55.90;;;;;;6163994;27;80872;-57
2023/07/18 10:50:40;;;;;;;8.52;3.63;;;27.50;56.40;;;;;;6181826;27;86759;-59
2023/07/18 10:53:42;;;;;;;6.15;3.22;;;27.50;56.30;;;;;;6167987;27;80627;-57
2023/07/18 10:56:43;;;;;;;7.20;3.22;;;27.50;56.10;;;;;;6169520;27;80426;-57
2023/07/18 10:59:44;;;;;;;7.20;3.40;;;27.50;56.10;;;;;;6166632;27;80887;-58
2023/07/18 11:02:45;;;;;;;6.30;2.78;;;27.50;56.10;;;;;;6170992;27;80484;-57
2023/07/18 11:05:46;;;;;;;5.65;3.08;;;27.50;55.90;;;;;;6171410;27;81708;-59
2023/07/18 11:08:46;;;;;;;5.97;2.85;;;27.50;54.70;;;;;;6172183;27;80678;-56
2023/07/18 11:11:47;;;;;;;9.65;3.10;;;27.60;54.20;;;;;;6174014;27;81482;-58
2023/07/18 11:14:47;;;;;;;4.78;3.03;;;27.50;55.10;;;;;;6172650;27;80871;-57
2023/07/18 11:17:48;;;;;;;7.55;2.90;;;27.50;55.00;;;;;;6171929;27;80158;-58
2023/07/18 11:20:48;;;;;;;11.48;2.95;;;27.50;55.20;;;;;;6173066;27;80779;-57
2023/07/18 11:23:49;;;;;;;9.75;3.70;;;27.60;55.10;;;;;;6171296;27;80141;-64
2023/07/18 11:26:49;;;;;;;6.50;3.20;;;27.60;55.10;;;;;;6176707;27;80648;-65
2023/07/18 11:29:50;;;;;;;8.10;3.13;;;27.60;55.20;;;;;;6176503;27;84113;-64
2023/07/18 11:32:51;;;;;;;6.70;3.83;;;27.60;55.20;;;;;;6171529;27;81765;-65
2023/07/18 11:35:51;;;;;;;6.90;3.40;;;27.70;54.50;;;;;;6181685;27;80256;-63
2023/07/18 11:38:52;;;;;;;8.05;3.47;;;27.70;54.90;;;;;;6152442;27;80416;-65
2023/07/18 11:41:52;;;;;;;6.63;3.00;;;27.60;55.80;;;;;;6171428;27;81211;-63
2023/07/18 11:44:53;;;;;;;4.22;3.40;;;27.60;56.00;;;;;;6184495;27;81597;-64
2023/07/18 11:47:53;;;;;;;8.52;3.90;;;27.60;54.90;;;;;;6164667;27;81291;-64
2023/07/18 11:50:54;;;;;;;9.73;3.88;;;27.70;56.20;;;;;;6181730;27;82692;-64
2023/07/18 11:53:54;;;;;;;5.07;3.08;;;27.70;56.10;;;;;;6162432;27;80853;-65
2023/07/18 11:56:55;;;;;;;5.13;3.50;;;27.70;55.50;;;;;;6171362;27;80616;-63
2023/07/18 11:59:55;;;;;;;6.90;3.20;;;27.70;55.30;;;;;;6186023;27;81197;-58
2023/07/18 12:02:56;;;;;;;10.43;3.33;;;27.70;55.40;;;;;;6173556;27;80240;-59
2023/07/18 12:05:56;;;;;;;8.57;3.72;;;27.70;55.80;;;;;;6171725;27;82934;-58
2023/07/18 12:08:57;;;;;;;11.45;3.50;;;27.80;54.80;;;;;;6172880;27;80580;-57
2023/07/18 12:11:58;;;;;;;3.75;3.20;;;27.80;54.00;;;;;;6162325;27;81409;-55
2023/07/18 12:14:59;;;;;;;10.32;3.38;;;27.80;54.70;;;;;;6157551;27;80091;-57
2023/07/18 12:17:59;;;;;;;6.28;3.03;;;27.80;54.40;;;;;;6159507;27;80670;-55
2023/07/18 12:21:00;;;;;;;5.00;2.55;;;27.80;54.50;;;;;;6171798;27;81167;-51
2023/07/18 12:24:01;;;;;;;7.85;3.58;;;27.80;54.00;;;;;;6171923;27;82165;-57
2023/07/18 12:27:02;;;;;;;9.48;2.58;;;27.70;53.50;;;;;;6172621;27;80300;-56
2023/07/18 12:30:02;;;;;;;8.02;2.78;;;27.70;53.80;;;;;;6158760;27;81182;-55
2023/07/18 12:33:03;;;;;;;4.32;2.80;;;27.70;54.10;;;;;;6168835;27;86558;-53
2023/07/18 12:36:04;;;;;;;6.93;3.25;;;27.80;54.80;;;;;;6172648;27;83411;-56
2023/07/18 12:39:04;;;;;;;7.25;2.60;;;27.70;54.50;;;;;;6181544;27;84899;-56
2023/07/18 12:42:05;;;;;;;5.18;2.72;;;27.80;54.70;;;;;;6172582;27;81206;-58
2023/07/18 12:45:05;;;;;;;5.68;2.70;;;27.80;54.00;;;;;;6170453;27;81289;-59
2023/07/18 12:48:06;;;;;;;5.85;2.92;;;27.80;53.60;;;;;;6172711;27;80553;-58
2023/07/18 12:51:06;;;;;;;7.43;2.70;;;27.80;53.50;;;;;;6174239;27;80541;-58
2023/07/18 12:54:07;;;;;;;4.35;2.78;;;27.90;52.70;;;;;;6168922;27;81073;-56
2023/07/18 12:57:08;;;;;;;4.18;2.75;;;27.80;51.80;;;;;;6171647;27;80264;-57
2023/07/18 13:00:08;;;;;;;4.32;2.55;;;27.80;52.30;;;;;;6171918;27;80801;-56
2023/07/18 13:03:09;;;;;;;3.92;2.70;;;27.90;52.30;;;;;;6172507;27;83229;-54
2023/07/18 13:06:09;;;;;;;3.88;2.67;;;27.90;51.30;;;;;;6172220;27;80090;-57
2023/07/18 13:09:10;;;;;;;3.55;2.05;;;27.90;51.50;;;;;;6171172;27;87162;-57
2023/07/18 13:12:10;;;;;;;3.50;2.45;;;27.90;52.00;;;;;;6167174;27;81533;-60
2023/07/18 13:15:11;;;;;;;4.50;2.67;;;27.90;51.90;;;;;;6165420;27;80671;-56
2023/07/18 13:18:12;;;;;;;6.30;3.65;;;27.90;52.10;;;;;;6161637;27;81118;-60
2023/07/18 13:21:12;;;;;;;4.82;2.85;;;27.90;51.90;;;;;;6163010;27;81817;-56
2023/07/18 13:24:13;;;;;;;6.00;2.28;;;27.90;50.70;;;;;;6167090;27;80890;-59
2023/07/18 13:27:13;;;;;;;7.70;2.80;;;27.90;51.00;;;;;;6167317;27;80709;-50
2023/07/18 13:30:14;;;;;;;5.53;2.75;;;27.90;51.50;;;;;;6164413;27;80417;-57
2023/07/18 13:33:15;;;;;;;6.15;3.00;;;27.90;50.60;;;;;;6171686;27;80607;-53
2023/07/18 13:36:15;;;;;;;3.58;2.40;;;27.90;50.60;;;;;;6161070;27;81037;-53
2023/07/18 13:39:16;;;;;;;5.80;2.25;;;27.90;50.30;;;;;;6175016;27;80743;-57
2023/07/18 13:42:17;;;;;;;4.13;2.38;;;27.80;49.20;;;;;;6174192;27;81345;-56
2023/07/18 13:45:17;;;;;;;3.70;2.20;;;27.90;46.50;;;;;;6173406;27;81680;-56
2023/07/18 13:48:17;;;;;;;3.60;2.75;;;27.80;47.30;;;;;;6172476;27;80993;-55
2023/07/18 13:51:18;;;;;;;5.68;2.15;;;27.80;48.30;;;;;;6173467;27;80937;-63
2023/07/18 13:54:19;;;;;;;7.25;2.10;;;27.80;46.30;;;;;;6168893;27;80645;-60
2023/07/18 13:57:19;;;;;;;2.50;2.10;;;27.70;44.90;;;;;;6173819;27;81404;-61
2023/07/18 14:00:20;;;;;;;3.55;2.33;;;27.70;45.90;;;;;;6177934;27;86304;-63
2023/07/18 14:03:21;;;;;;;6.65;2.28;;;27.70;45.70;;;;;;6161095;27;80370;-61
2023/07/18 14:06:21;;;;;;;8.15;2.30;;;27.60;45.10;;;;;;6174853;27;81398;-65
2023/07/18 14:09:22;;;;;;;8.57;2.33;;;27.60;45.20;;;;;;6173687;27;80680;-58
2023/07/18 14:12:23;;;;;;;8.40;4.45;;;27.60;46.00;;;;;;6179512;27;80631;-56
2023/07/18 14:15:23;;;;;;;7.18;4.82;;;27.60;45.80;;;;;;6173657;27;80465;-57
2023/07/18 14:18:24;;;;;;;5.28;3.15;;;27.60;45.50;;;;;;6173588;27;82696;-57
2023/07/18 14:21:24;;;;;;;5.47;2.67;;;27.50;44.90;;;;;;6173971;27;80382;-55
2023/07/18 14:24:25;;;;;;;4.00;2.78;;;27.50;44.80;;;;;;6173303;27;80652;-55
2023/07/18 14:27:25;;;;;;;6.65;2.53;;;27.50;45.20;;;;;;6161733;27;81201;-60
2023/07/18 14:30:26;;;;;;;9.40;2.72;;;27.50;45.70;;;;;;6147629;27;83958;-58
2023/07/18 14:33:26;;;;;;;8.20;2.50;;;27.50;45.60;;;;;;6138192;27;87196;-56
2023/07/18 14:36:27;;;;;;;5.53;2.63;;;27.50;45.60;;;;;;6158688;27;81336;-56
2023/07/18 14:39:27;;;;;;;8.45;3.10;;;27.40;45.80;;;;;;6157695;27;82308;-56
2023/07/18 14:42:28;;;;;;;6.95;2.70;;;27.40;45.60;;;;;;6147678;27;80802;-59
2023/07/18 14:45:28;;;;;;;7.22;2.72;;;27.40;45.50;;;;;;6148744;27;81997;-62
2023/07/18 14:48:29;;;;;;;6.15;2.42;;;27.30;45.30;;;;;;6151809;27;80897;-62
2023/07/18 14:51:32;;;;;;;5.28;2.67;;;27.40;45.80;;;;;;6147548;27;82572;-63
2023/07/18 14:54:32;;;;;;;5.95;2.50;;;27.40;45.80;;;;;;6148430;27;80725;-63
2023/07/18 14:57:33;;;;;;;5.32;2.67;;;27.30;45.70;;;;;;6173860;27;80908;-65
2023/07/18 15:00:33;;;;;;;5.43;2.38;;;27.30;45.70;;;;;;6175036;27;80519;-66
2023/07/18 15:03:35;;;;;;;3.47;2.60;;;27.30;44.70;;;;;;6161654;27;80400;-61
2023/07/18 15:06:35;;;;;;;4.45;2.47;;;27.30;45.20;;;;;;6176744;27;81245;-61
2023/07/18 15:09:36;;;;;;;5.65;2.80;;;27.30;45.40;;;;;;6174154;27;82643;-60
2023/07/18 15:12:39;;;;;;;3.78;2.55;;;27.30;44.30;;;;;;6179290;27;81785;-64
2023/07/18 15:15:40;;;;;;;6.47;2.85;;;27.20;44.10;;;;;;6164752;27;81006;-63
2023/07/18 15:18:40;;;;;;;3.78;2.20;;;27.20;44.20;;;;;;6171327;27;82123;-66
2023/07/18 15:21:41;;;;;;;6.90;2.70;;;27.20;44.90;;;;;;6167568;27;80312;-67
2023/07/18 15:24:42;;;;;;;2.90;2.40;;;27.20;44.20;;;;;;6168398;27;81603;-72
2023/07/18 15:27:43;;;;;;;6.70;2.92;;;27.20;44.40;;;;;;6173985;27;81627;-74
2023/07/18 15:30:44;;;;;;;4.03;2.70;;;27.20;44.90;;;;;;6168932;27;80559;-71
2023/07/18 15:33:44;;;;;;;2.78;2.22;;;27.20;44.80;;;;;;6150897;27;80697;-66
2023/07/18 15:36:46;;;;;;;5.03;2.35;;;27.20;44.60;;;;;;6159931;27;80840;-69
2023/07/18 15:39:46;;;;;;;5.57;2.45;;;27.10;44.80;;;;;;6161904;27;80830;-67